Time;durP1;ratioP1;P1;durP2;ratioP2;P2;SDS_P1;SDS_P2;PMS_P1;PMS_P2;Temp;Humidity;BMP_temperature;BMP_pressure;BME280_temperature;BME280_humidity;BME280_pressure;Samples;Min_cycle;Max_cycle;Signal;HPM_P1;HPM_P2
2021/07/13 00:01:07;;;;;;;7.10;4.00;;;;;;;16.55;88.16;94746.38;5051464;28;20120;-78
2021/07/13 00:03:33;;;;;;;6.93;3.95;;;;;;;16.39;89.03;94739.00;5044503;28;20041;-78
2021/07/13 00:06:00;;;;;;;6.65;3.80;;;;;;;16.36;89.26;94739.63;5050542;28;20124;-79
2021/07/13 00:08:26;;;;;;;6.95;3.95;;;;;;;16.36;89.40;94734.34;5035933;28;20453;-78
2021/07/13 00:10:52;;;;;;;6.35;3.90;;;;;;;16.34;89.26;94725.16;5056887;28;20064;-79
2021/07/13 00:13:17;;;;;;;8.57;4.05;;;;;;;16.30;89.34;94717.06;5029255;28;20045;-79
2021/07/13 00:15:44;;;;;;;8.18;4.50;;;;;;;16.21;89.40;94705.75;5059924;28;20102;-79
2021/07/13 00:18:12;;;;;;;6.68;3.92;;;;;;;16.31;89.56;94715.97;5051009;28;20033;-79
2021/07/13 00:20:38;;;;;;;5.38;3.70;;;;;;;16.49;89.08;94710.50;5038321;28;20080;-78
2021/07/13 00:23:04;;;;;;;8.07;4.05;;;;;;;16.40;89.19;94714.00;5043041;28;20318;-79
2021/07/13 00:25:31;;;;;;;5.75;4.00;;;;;;;16.31;89.93;94715.97;5051497;28;20037;-78
2021/07/13 00:27:57;;;;;;;8.07;3.72;;;;;;;16.48;88.51;94719.56;5055844;28;20064;-78
2021/07/13 00:30:24;;;;;;;6.50;4.22;;;;;;;16.48;88.54;94719.56;5052855;28;20090;-78
2021/07/13 00:32:50;;;;;;;8.05;4.05;;;;;;;16.32;89.16;94712.22;5049125;28;20059;-78
2021/07/13 00:35:16;;;;;;;9.07;3.80;;;;;;;16.23;89.20;94703.53;5059186;28;20501;-78
2021/07/13 00:37:42;;;;;;;7.03;4.40;;;;;;;16.18;89.61;94706.38;5050472;28;20044;-79
2021/07/13 00:40:10;;;;;;;8.55;4.20;;;;;;;16.17;89.75;94696.88;5033454;28;20045;-78
2021/07/13 00:42:36;;;;;;;7.18;4.03;;;;;;;16.28;89.25;94700.69;5030838;28;20060;-79
2021/07/13 00:45:04;;;;;;;6.90;4.10;;;;;;;16.31;89.41;94700.03;5051045;28;20044;-78
2021/07/13 00:47:30;;;;;;;8.50;3.75;;;;;;;16.20;89.28;94698.88;5050257;28;20510;-79
2021/07/13 00:49:55;;;;;;;8.88;4.03;;;;;;;16.16;89.72;94697.97;5055549;28;20138;-79
2021/07/13 00:52:21;;;;;;;5.93;3.80;;;;;;;16.09;89.88;94688.66;5043451;28;20046;-79
2021/07/13 00:54:48;;;;;;;6.05;3.88;;;;;;;16.19;89.92;94686.69;5056612;28;20078;-78
2021/07/13 00:57:15;;;;;;;6.65;3.80;;;;;;;16.26;89.68;94686.94;5052633;28;20037;-79
2021/07/13 00:59:41;;;;;;;6.47;3.90;;;;;;;16.25;89.69;94675.56;5051798;28;20036;-79
2021/07/13 01:02:09;;;;;;;7.80;4.18;;;;;;;16.03;89.98;94668.72;5064309;28;20094;-79
2021/07/13 01:04:38;;;;;;;10.95;4.40;;;;;;;15.97;90.80;94663.94;5033037;28;20498;-79
2021/07/13 01:07:10;;;;;;;6.10;4.00;;;;;;;16.01;90.77;94665.59;5050173;28;20052;-79
2021/07/13 01:10:30;;;;;;;8.43;4.80;;;;;;;16.17;90.47;94663.13;5045398;28;20052;-79
2021/07/13 01:13:24;;;;;;;5.95;3.65;;;;;;;16.29;89.96;94662.41;4984824;28;20038;-79
2021/07/13 01:15:58;;;;;;;6.03;4.05;;;;;;;16.21;90.67;94647.34;5047153;28;20065;-78
2021/07/13 01:18:30;;;;;;;7.57;3.95;;;;;;;16.24;90.63;94652.00;5031100;28;20053;-79
2021/07/13 01:21:20;;;;;;;8.63;4.15;;;;;;;16.32;89.77;94659.13;5038850;28;20095;-79
2021/07/13 01:24:12;;;;;;;8.07;3.50;;;;;;;16.38;88.62;94663.09;5041272;28;20171;-78
2021/07/13 01:26:47;;;;;;;7.93;4.28;;;;;;;16.26;88.97;94660.41;5041293;28;20053;-79
2021/07/13 01:29:16;;;;;;;6.75;4.30;;;;;;;16.14;89.67;94663.00;5050027;28;20044;-79
2021/07/13 01:31:44;;;;;;;6.38;3.97;;;;;;;16.09;89.21;94656.81;5047672;28;21664;-79
2021/07/13 01:34:39;;;;;;;9.30;4.35;;;;;;;16.16;89.91;94655.50;5034776;28;20382;-79
2021/07/13 01:37:06;;;;;;;;;;;;;;;16.26;90.05;94649.78;5052163;28;20061;-79
2021/07/13 01:39:32;;;;;;;9.68;4.47;;;;;;;16.40;88.85;94647.63;5053963;28;20347;-79
2021/07/13 01:42:02;;;;;;;6.47;4.00;;;;;;;16.36;89.27;94643.28;5050814;28;20040;-79
2021/07/13 01:44:29;;;;;;;7.20;3.80;;;;;;;16.49;88.59;94647.53;5054379;28;20041;-79
2021/07/13 01:46:55;;;;;;;6.20;4.00;;;;;;;16.45;88.08;94642.09;5050535;28;20041;-79
2021/07/13 01:49:24;;;;;;;7.25;3.97;;;;;;;16.41;87.99;94641.22;5037172;28;20384;-79
2021/07/13 01:51:52;;;;;;;5.88;3.90;;;;;;;16.31;89.34;94646.94;5051184;28;20068;-79
2021/07/13 01:54:21;;;;;;;5.57;3.70;;;;;;;16.32;89.15;94648.50;5060036;28;20041;-79
2021/07/13 01:56:50;;;;;;;7.38;4.07;;;;;;;16.49;88.92;94652.06;5058088;28;20130;-79
2021/07/13 01:59:18;;;;;;;6.13;3.85;;;;;;;16.41;88.73;94649.16;5054160;28;20056;-79
2021/07/13 02:01:46;;;;;;;5.80;4.00;;;;;;;16.53;88.10;94652.97;5061390;28;20044;-79
2021/07/13 02:04:13;;;;;;;8.95;5.32;;;;;;;16.64;87.75;94654.13;5073629;28;20060;-80
2021/07/13 02:06:42;;;;;;;6.72;4.30;;;;;;;16.52;87.84;94651.41;5074538;28;20036;-79
2021/07/13 02:09:11;;;;;;;8.38;4.50;;;;;;;16.76;88.10;94656.78;5037167;28;20049;-80
2021/07/13 02:11:42;;;;;;;7.70;3.63;;;;;;;16.76;87.83;94656.78;5053536;28;20037;-79
2021/07/13 02:14:09;;;;;;;9.45;4.35;;;;;;;16.79;88.33;94656.16;5063563;28;20044;-80
2021/07/13 02:16:35;;;;;;;9.13;4.28;;;;;;;16.75;88.12;94655.25;5051044;28;20043;-79
2021/07/13 02:19:00;;;;;;;6.00;4.07;;;;;;;16.59;88.89;94656.97;5052354;28;20450;-80
2021/07/13 02:21:26;;;;;;;6.85;4.00;;;;;;;16.63;89.18;94657.88;5053803;28;20044;-79
2021/07/13 02:23:51;;;;;;;6.88;4.00;;;;;;;16.83;88.01;94650.16;5054262;28;20048;-79
2021/07/13 02:26:23;;;;;;;6.53;3.92;;;;;;;16.80;88.44;94647.03;5054764;28;20048;-79
2021/07/13 02:28:59;;;;;;;6.18;3.80;;;;;;;16.58;89.47;94639.50;5053438;28;20041;-81
2021/07/13 02:31:32;;;;;;;5.90;3.53;;;;;;;16.37;89.89;94629.69;5033153;28;20043;-81
2021/07/13 02:34:05;;;;;;;8.90;4.07;;;;;;;16.60;89.38;94626.66;5049391;28;20044;-81
2021/07/13 02:36:34;;;;;;;6.60;3.90;;;;;;;16.63;88.78;94631.31;5036889;28;20044;-82
2021/07/13 02:39:04;;;;;;;9.40;4.30;;;;;;;16.63;88.74;94620.69;5048140;28;20033;-82
2021/07/13 02:41:29;;;;;;;9.00;4.00;;;;;;;16.55;89.70;94613.56;5053825;28;20036;-81
2021/07/13 02:43:56;;;;;;;8.27;3.92;;;;;;;16.61;89.13;94617.59;5053828;28;20095;-80
2021/07/13 02:46:25;;;;;;;7.15;4.13;;;;;;;16.44;89.45;94608.69;5047403;28;20056;-80
2021/07/13 02:48:52;;;;;;;5.30;3.70;;;;;;;16.28;90.30;94610.41;5045698;28;20033;-80
2021/07/13 02:51:19;;;;;;;6.32;3.83;;;;;;;16.37;90.02;94608.44;5054199;28;20139;-79
2021/07/13 02:53:47;;;;;;;6.32;3.90;;;;;;;16.41;89.89;94604.03;5031764;28;20049;-79
2021/07/13 02:56:15;;;;;;;5.43;3.83;;;;;;;16.31;90.46;94593.84;5053941;28;20037;-79
2021/07/13 02:58:41;;;;;;;7.30;4.00;;;;;;;16.27;90.42;94603.56;5054153;28;20041;-79
2021/07/13 03:01:08;;;;;;;7.05;3.85;;;;;;;16.37;89.92;94613.75;5050308;28;20449;-80
2021/07/13 03:03:35;;;;;;;7.07;3.97;;;;;;;16.40;89.74;94596.41;5053272;28;20041;-80
2021/07/13 03:06:02;;;;;;;8.32;4.00;;;;;;;16.35;89.97;94613.31;5063876;28;20120;-80
2021/07/13 03:08:29;;;;;;;8.60;3.75;;;;;;;16.11;90.56;94616.66;5050704;28;20041;-80
2021/07/13 03:10:56;;;;;;;7.00;3.53;;;;;;;16.09;91.53;94614.34;5050827;28;20407;-79
2021/07/13 03:13:23;;;;;;;8.13;4.20;;;;;;;16.29;90.14;94630.53;5050106;28;20116;-79
2021/07/13 03:15:50;;;;;;;9.23;4.28;;;;;;;16.18;89.84;94626.75;5052610;28;20045;-79
2021/07/13 03:18:17;;;;;;;5.53;3.92;;;;;;;16.10;90.49;94631.81;5069170;28;20531;-79
2021/07/13 03:20:46;;;;;;;9.38;4.38;;;;;;;16.26;90.32;94639.16;5044796;28;20072;-80
2021/07/13 03:23:12;;;;;;;6.65;4.35;;;;;;;16.20;90.33;94619.25;5052308;28;20434;-79
2021/07/13 03:25:41;;;;;;;7.07;4.20;;;;;;;16.26;90.27;94629.34;5035106;28;20114;-79
2021/07/13 03:28:10;;;;;;;7.05;3.90;;;;;;;16.25;90.02;94645.59;5034962;28;20060;-79
2021/07/13 03:30:36;;;;;;;6.82;4.40;;;;;;;16.27;90.06;94630.88;5050036;28;20045;-78
2021/07/13 03:33:02;;;;;;;7.50;4.07;;;;;;;16.17;90.68;94614.59;5055988;28;20098;-79
2021/07/13 03:35:30;;;;;;;6.95;4.00;;;;;;;16.15;90.54;94648.63;5061638;28;20043;-79
2021/07/13 03:37:57;;;;;;;8.23;4.20;;;;;;;16.08;90.52;94628.69;5064157;28;20067;-79
2021/07/13 03:40:25;;;;;;;9.70;4.38;;;;;;;16.31;90.40;94641.63;5060234;28;20036;-79
2021/07/13 03:42:53;;;;;;;6.95;4.20;;;;;;;16.27;90.38;94661.97;5061674;28;20051;-79
2021/07/13 03:45:20;;;;;;;6.38;4.13;;;;;;;16.30;90.20;94640.06;5052575;28;20037;-79
2021/07/13 03:47:53;;;;;;;6.47;3.85;;;;;;;16.18;91.06;94651.41;5051471;28;20186;-78
2021/07/13 03:50:22;;;;;;;6.30;4.30;;;;;;;16.15;90.94;94646.75;5032315;28;20049;-79
2021/07/13 03:52:48;;;;;;;6.75;4.18;;;;;;;16.20;91.11;94651.09;5044619;28;20293;-79
2021/07/13 03:55:14;;;;;;;7.50;4.70;;;;;;;16.20;91.53;94645.78;5053480;28;20033;-79
2021/07/13 03:57:40;;;;;;;7.53;4.22;;;;;;;16.22;91.45;94654.19;5063418;28;20041;-79
2021/07/13 04:00:10;;;;;;;8.15;5.18;;;;;;;16.22;91.25;94660.28;5045210;28;20042;-78
2021/07/13 04:02:36;;;;;;;6.35;4.13;;;;;;;16.20;91.44;94645.78;5044083;28;20055;-78
2021/07/13 04:05:01;;;;;;;8.05;4.40;;;;;;;16.17;91.70;94662.34;5054784;28;20041;-79
2021/07/13 04:07:27;;;;;;;7.90;4.15;;;;;;;16.27;91.55;94664.59;5051020;28;20068;-79
2021/07/13 04:09:52;;;;;;;7.50;4.43;;;;;;;16.31;91.35;94662.84;5030255;28;20041;-79
2021/07/13 04:12:17;;;;;;;8.02;4.85;;;;;;;16.33;91.35;94665.94;5049600;28;20052;-79
2021/07/13 04:14:43;;;;;;;6.82;4.80;;;;;;;16.26;92.08;94676.31;5051098;28;20041;-79
2021/07/13 04:17:10;;;;;;;6.95;4.80;;;;;;;16.45;91.44;94689.91;5051003;28;20041;-79
2021/07/13 04:19:35;;;;;;;7.93;4.53;;;;;;;16.52;90.93;94673.44;5056325;28;20037;-78
2021/07/13 04:22:01;;;;;;;7.75;4.80;;;;;;;16.42;91.41;94653.38;5049596;28;20053;-79
2021/07/13 04:24:26;;;;;;;9.02;4.50;;;;;;;16.58;91.20;94666.06;5057489;28;20033;-79
2021/07/13 04:26:52;;;;;;;8.88;4.60;;;;;;;16.60;90.66;94663.84;5038439;28;20052;-80
2021/07/13 04:29:18;;;;;;;8.45;4.63;;;;;;;16.61;91.06;94652.13;5050986;28;20044;-78
2021/07/13 04:31:43;;;;;;;8.50;4.63;;;;;;;16.79;90.52;94660.66;5048633;28;20406;-79
2021/07/13 04:34:11;;;;;;;8.02;4.75;;;;;;;16.67;90.59;94656.09;5039024;28;20111;-79
2021/07/13 04:36:38;;;;;;;7.10;4.75;;;;;;;16.69;90.33;94651.22;5039401;28;20048;-78
2021/07/13 04:39:08;;;;;;;10.32;4.88;;;;;;;16.78;89.70;94649.28;5035896;28;20116;-78
2021/07/13 04:41:34;;;;;;;7.15;5.00;;;;;;;16.71;90.89;94642.97;5047036;28;20491;-79
2021/07/13 04:44:01;;;;;;;6.43;4.65;;;;;;;16.79;90.33;94645.50;5034994;28;20067;-78
2021/07/13 04:46:27;;;;;;;6.60;4.70;;;;;;;16.74;90.00;94637.75;5056315;28;20044;-78
2021/07/13 04:48:54;;;;;;;10.73;5.10;;;;;;;16.82;89.70;94643.28;5050115;28;20053;-79
2021/07/13 04:51:20;;;;;;;8.57;4.47;;;;;;;16.90;89.80;94645.13;5041410;28;20051;-78
2021/07/13 04:53:46;;;;;;;8.80;4.63;;;;;;;16.74;89.74;94632.44;5034708;28;20122;-78
2021/07/13 04:56:11;;;;;;;10.20;5.20;;;;;;;16.92;89.70;94632.25;5041564;28;20083;-79
2021/07/13 04:58:37;;;;;;;6.95;4.50;;;;;;;17.08;88.41;94645.66;5050694;28;20041;-78
2021/07/13 05:01:03;;;;;;;8.23;4.50;;;;;;;16.95;88.78;94642.22;5032235;28;20048;-79
2021/07/13 05:03:28;;;;;;;9.48;5.05;;;;;;;17.03;89.49;94644.00;5014792;28;20049;-79
2021/07/13 05:05:54;;;;;;;6.43;4.43;;;;;;;17.09;88.72;94642.66;5056239;28;20120;-79
2021/07/13 05:08:21;;;;;;;8.68;4.30;;;;;;;17.43;87.68;94648.66;5052028;28;20037;-80
2021/07/13 05:10:48;;;;;;;7.72;4.70;;;;;;;17.23;87.70;94644.25;5037127;28;20116;-78
2021/07/13 05:13:14;;;;;;;8.95;4.65;;;;;;;17.11;88.05;94635.16;5056343;28;20048;-79
2021/07/13 05:15:39;;;;;;;7.03;4.43;;;;;;;17.25;87.87;94634.03;5046089;28;20414;-79
2021/07/13 05:18:12;;;;;;;10.50;4.68;;;;;;;17.13;88.55;94635.59;5059969;28;20044;-78
2021/07/13 05:20:53;;;;;;;6.73;4.57;;;;;;;17.25;87.90;94620.75;5054340;28;20435;-79
2021/07/13 05:23:19;;;;;;;8.48;4.50;;;;;;;17.14;88.38;94613.22;5031320;28;20037;-78
2021/07/13 05:25:44;;;;;;;9.45;4.70;;;;;;;17.21;88.11;94611.88;5050844;28;20049;-79
2021/07/13 05:28:11;;;;;;;8.15;4.22;;;;;;;17.47;86.86;94620.28;5050158;28;20048;-78
2021/07/13 05:30:41;;;;;;;8.27;4.90;;;;;;;17.31;87.20;94611.44;5051317;28;20041;-78
2021/07/13 05:33:08;;;;;;;7.80;4.78;;;;;;;17.27;87.96;94610.56;5057988;28;20044;-79
2021/07/13 05:35:34;;;;;;;10.38;4.50;;;;;;;17.34;88.16;94605.47;5030942;28;20113;-78
2021/07/13 05:37:59;;;;;;;8.75;4.63;;;;;;;17.35;87.77;94606.22;5040602;28;20455;-78
2021/07/13 05:40:25;;;;;;;10.07;4.70;;;;;;;17.48;86.86;94605.88;5057112;28;20457;-78
2021/07/13 05:42:50;;;;;;;11.57;4.60;;;;;;;17.41;87.65;94605.69;5058855;28;20124;-79
2021/07/13 05:45:16;;;;;;;8.50;4.90;;;;;;;17.35;87.81;94596.34;5050752;28;20126;-79
2021/07/13 05:47:42;;;;;;;9.90;4.80;;;;;;;17.58;87.57;94606.53;5047879;28;20541;-79
2021/07/13 05:50:09;;;;;;;13.80;4.75;;;;;;;17.80;86.70;94616.69;5049192;28;20460;-79
2021/07/13 05:52:35;;;;;;;8.07;4.97;;;;;;;17.73;86.26;94608.50;5055156;28;20071;-78
2021/07/13 05:55:01;;;;;;;6.53;4.60;;;;;;;17.69;86.87;94610.28;5048070;28;20044;-79
2021/07/13 05:57:26;;;;;;;7.88;4.60;;;;;;;17.92;85.45;94620.44;5032366;28;20033;-78
2021/07/13 05:59:52;;;;;;;8.60;4.47;;;;;;;17.73;86.58;94616.47;5057815;28;20044;-78
2021/07/13 06:02:18;;;;;;;7.78;4.60;;;;;;;17.96;86.30;94624.00;5049098;28;20099;-78
2021/07/13 06:04:43;;;;;;;8.40;4.65;;;;;;;17.97;86.22;94625.50;5054209;28;20040;-79
2021/07/13 06:07:09;;;;;;;9.45;5.07;;;;;;;17.99;85.12;94623.31;5058354;28;20036;-79
2021/07/13 06:09:35;;;;;;;9.85;4.90;;;;;;;18.04;85.49;94633.69;5048369;28;20045;-79
2021/07/13 06:12:00;;;;;;;10.18;5.00;;;;;;;18.11;84.80;94630.47;5048436;28;20045;-79
2021/07/13 06:14:26;;;;;;;10.07;5.00;;;;;;;18.04;85.59;94641.69;5045105;28;20111;-78
2021/07/13 06:16:52;;;;;;;10.25;4.78;;;;;;;18.05;85.44;94640.59;5048969;28;20887;-78
2021/07/13 06:19:17;;;;;;;10.68;4.93;;;;;;;18.05;85.97;94632.59;5052544;28;20537;-79
2021/07/13 06:21:44;;;;;;;6.35;4.40;;;;;;;17.95;85.98;94638.41;5045361;28;20086;-79
2021/07/13 06:24:11;;;;;;;9.00;5.05;;;;;;;18.06;85.14;94633.34;5046138;28;20094;-79
2021/07/13 06:26:36;;;;;;;7.22;5.10;;;;;;;18.00;85.46;94624.84;5052654;28;20115;-78
2021/07/13 06:29:02;;;;;;;10.27;4.78;;;;;;;17.89;86.01;94634.41;5035493;28;20130;-78
2021/07/13 06:31:28;;;;;;;10.52;4.97;;;;;;;17.83;86.11;94631.97;5052594;28;20059;-78
2021/07/13 06:33:54;;;;;;;8.73;4.72;;;;;;;17.84;87.04;94628.19;5052301;28;20037;-78
2021/07/13 06:36:20;;;;;;;10.23;4.78;;;;;;;17.92;86.52;94625.78;5051453;28;20045;-78
2021/07/13 06:38:45;;;;;;;7.70;4.85;;;;;;;17.96;86.39;94614.09;5049563;28;20060;-81
2021/07/13 06:41:11;;;;;;;7.30;5.00;;;;;;;18.05;85.27;94616.63;5050981;28;20053;-78
2021/07/13 06:43:36;;;;;;;9.77;4.97;;;;;;;18.10;86.32;94629.69;5034638;28;20095;-78
2021/07/13 06:46:02;;;;;;;8.27;4.60;;;;;;;18.07;85.83;94625.03;5049127;28;20040;-79
2021/07/13 06:48:27;;;;;;;7.55;4.68;;;;;;;18.00;85.60;94635.47;5046804;28;20100;-77
2021/07/13 06:50:54;;;;;;;8.80;4.55;;;;;;;17.89;86.04;94634.41;5065051;28;20045;-79
2021/07/13 06:53:20;;;;;;;9.27;4.82;;;;;;;18.00;86.07;94638.16;5052819;28;20448;-79
2021/07/13 06:55:46;;;;;;;14.50;5.93;;;;;;;18.02;85.73;94643.91;5056823;28;20051;-82
2021/07/13 06:58:12;;;;;;;11.65;5.20;;;;;;;17.97;86.29;94641.50;5039954;28;20033;-79
2021/07/13 07:00:38;;;;;;;7.45;4.95;;;;;;;17.92;86.22;94644.41;5056026;28;20041;-84
2021/07/13 07:03:04;;;;;;;11.68;5.35;;;;;;;17.81;86.76;94644.84;5056783;28;20048;-79
2021/07/13 07:05:29;;;;;;;10.70;5.45;;;;;;;17.82;87.03;94638.38;5062073;28;20506;-79
2021/07/13 07:07:56;;;;;;;11.93;5.20;;;;;;;17.83;87.11;94658.56;5056233;28;20395;-82
2021/07/13 07:10:21;;;;;;;11.20;5.47;;;;;;;17.86;87.08;94669.66;5053865;28;20037;-80
2021/07/13 07:12:49;;;;;;;16.95;5.25;;;;;;;17.88;86.93;94667.44;5056275;28;20040;-82
2021/07/13 07:15:16;;;;;;;10.63;5.47;;;;;;;17.90;86.39;94665.22;5057145;28;20037;-80
2021/07/13 07:17:49;;;;;;;8.48;5.20;;;;;;;17.86;86.83;94667.00;5056309;28;20040;-78
2021/07/13 07:20:17;;;;;;;8.35;5.55;;;;;;;17.97;86.81;94662.78;5052580;28;20044;-79
2021/07/13 07:22:43;;;;;;;12.52;5.70;;;;;;;17.97;86.59;94663.56;5053616;28;20045;-81
2021/07/13 07:25:10;;;;;;;8.32;5.13;;;;;;;18.13;86.07;94670.84;5039496;28;20095;-81
2021/07/13 07:27:36;;;;;;;10.90;6.10;;;;;;;18.20;85.61;94664.94;5050488;28;20073;-81
2021/07/13 07:30:07;;;;;;;7.70;5.60;;;;;;;18.24;85.49;94660.50;5061456;28;20045;-80
2021/07/13 07:32:34;;;;;;;12.55;6.45;;;;;;;18.25;85.41;94670.03;5049330;28;20045;-80
2021/07/13 07:35:00;;;;;;;9.20;6.82;;;;;;;18.31;85.50;94661.44;5056432;28;20041;-82
2021/07/13 07:37:25;;;;;;;12.18;6.20;;;;;;;18.57;84.57;94662.13;5056477;28;20043;-80
2021/07/13 07:39:51;;;;;;;10.20;5.95;;;;;;;18.47;85.12;94658.06;5055378;28;20487;-79
2021/07/13 07:42:16;;;;;;;7.05;5.82;;;;;;;18.58;84.41;94655.69;5052444;28;20044;-79
2021/07/13 07:44:42;;;;;;;9.15;5.90;;;;;;;18.79;83.57;94664.22;5039880;28;20102;-80
2021/07/13 07:47:07;;;;;;;7.82;6.25;;;;;;;18.92;82.70;94656.16;5055032;28;20391;-81
2021/07/13 07:49:33;;;;;;;8.88;6.00;;;;;;;18.98;83.60;94649.47;5033129;28;20115;-80
2021/07/13 07:51:59;;;;;;;9.70;5.82;;;;;;;19.20;81.86;94648.84;5057597;28;20045;-80
2021/07/13 07:54:26;;;;;;;8.48;6.05;;;;;;;19.29;81.63;94650.56;5045566;28;20047;-79
2021/07/13 07:56:52;;;;;;;9.50;7.45;;;;;;;19.31;80.75;94656.31;5054524;28;20052;-80
2021/07/13 07:59:19;;;;;;;8.15;6.88;;;;;;;19.61;79.91;94647.84;5054791;28;20073;-80
2021/07/13 08:01:45;;;;;;;11.70;8.43;;;;;;;19.76;78.43;94664.97;5048079;28;20048;-80
2021/07/13 08:04:10;;;;;;;12.02;8.57;;;;;;;19.72;78.88;94670.22;5037601;28;20142;-78
2021/07/13 08:06:36;;;;;;;10.45;7.85;;;;;;;19.77;78.56;94672.63;5065698;28;20269;-78
2021/07/13 08:09:02;;;;;;;14.23;8.80;;;;;;;19.66;79.28;94683.06;5057617;28;20045;-79
2021/07/13 08:11:28;;;;;;;8.60;7.57;;;;;;;19.88;78.19;94684.34;5052901;28;20128;-80
2021/07/13 08:13:54;;;;;;;9.70;7.70;;;;;;;19.96;77.68;94679.16;5035120;28;20036;-78
2021/07/13 08:16:19;;;;;;;9.90;7.72;;;;;;;19.98;76.67;94687.56;5034702;28;20059;-78
2021/07/13 08:18:44;;;;;;;12.65;7.22;;;;;;;19.82;77.77;94685.72;5050489;28;20041;-78
2021/07/13 08:21:10;;;;;;;7.60;6.40;;;;;;;20.11;76.34;94694.31;5052386;28;20037;-79
2021/07/13 08:23:35;;;;;;;11.40;6.90;;;;;;;20.07;76.25;94686.25;5035230;28;20052;-78
2021/07/13 08:26:01;;;;;;;12.65;8.20;;;;;;;20.12;76.13;94679.84;5033578;28;20046;-79
2021/07/13 08:28:27;;;;;;;11.18;7.50;;;;;;;20.18;76.03;94686.47;5039557;28;20055;-79
2021/07/13 08:30:52;;;;;;;10.32;8.20;;;;;;;20.31;76.17;94683.66;5040406;28;20044;-78
2021/07/13 08:33:17;;;;;;;9.50;7.95;;;;;;;20.36;75.56;94686.06;5052932;28;20425;-80
2021/07/13 08:35:43;;;;;;;11.00;8.48;;;;;;;20.30;75.21;94687.44;5053118;28;20561;-80
2021/07/13 08:38:08;;;;;;;12.65;8.85;;;;;;;20.25;74.79;94702.63;5051914;28;20045;-80
2021/07/13 08:40:34;;;;;;;9.70;8.45;;;;;;;20.24;75.91;94701.09;5046454;28;20051;-79
2021/07/13 08:43:00;;;;;;;10.15;8.93;;;;;;;20.21;74.86;94707.16;5050139;28;20044;-78
2021/07/13 08:45:26;;;;;;;10.40;8.45;;;;;;;20.27;73.68;94709.53;5051908;28;20048;-79
2021/07/13 08:47:52;;;;;;;15.85;8.60;;;;;;;20.33;74.59;94700.09;5021632;28;20494;-79
2021/07/13 08:50:20;;;;;;;14.70;9.10;;;;;;;20.38;73.48;94705.94;5047979;28;20048;-78
2021/07/13 08:52:46;;;;;;;10.80;7.97;;;;;;;20.68;73.51;94707.31;5052920;28;20104;-79
2021/07/13 08:55:13;;;;;;;11.23;7.72;;;;;;;20.83;73.44;94703.78;5045715;28;20052;-79
2021/07/13 08:57:40;;;;;;;10.60;7.88;;;;;;;20.93;73.25;94703.19;5071945;28;20048;-79
2021/07/13 09:00:12;;;;;;;13.18;7.57;;;;;;;20.88;73.62;94700.78;5063009;28;20028;-79
2021/07/13 09:03:02;;;;;;;9.30;8.30;;;;;;;20.96;72.49;94698.25;5049752;28;20090;-79
2021/07/13 09:05:28;;;;;;;14.60;8.50;;;;;;;20.78;71.61;94712.06;5033962;28;20048;-79
2021/07/13 09:07:54;;;;;;;15.38;8.25;;;;;;;21.02;72.55;94710.19;5052500;28;20041;-79
2021/07/13 09:10:19;;;;;;;8.82;7.65;;;;;;;21.23;70.71;94715.94;5032211;28;20037;-80
2021/07/13 09:12:48;;;;;;;10.05;7.72;;;;;;;21.17;71.85;94722.69;5040408;28;20116;-78
2021/07/13 09:15:17;;;;;;;8.93;7.53;;;;;;;21.37;69.79;94719.97;5056344;28;20045;-79
2021/07/13 09:17:44;;;;;;;8.60;7.68;;;;;;;21.22;70.16;94730.44;5051186;28;20052;-79
2021/07/13 09:20:31;;;;;;;10.07;7.93;;;;;;;21.08;70.95;94735.53;5051284;28;20033;-79
2021/07/13 09:23:00;;;;;;;9.25;8.35;;;;;;;21.06;71.96;94737.78;5046942;28;20044;-79
2021/07/13 09:25:30;;;;;;;9.40;7.60;;;;;;;21.31;69.55;94734.78;5014068;28;20114;-80
2021/07/13 09:28:06;;;;;;;10.68;7.68;;;;;;;21.51;70.24;94746.97;5031714;28;20491;-79
2021/07/13 09:30:32;;;;;;;9.23;7.68;;;;;;;21.41;70.10;94752.91;5038654;28;20041;-79
2021/07/13 09:33:16;;;;;;;10.02;7.38;;;;;;;21.37;69.41;94741.38;5035065;28;20045;-79
2021/07/13 09:36:11;;;;;;;11.10;8.15;;;;;;;20.89;69.96;94739.03;5051431;28;20037;-79
2021/07/13 09:38:46;;;;;;;10.23;8.15;;;;;;;21.13;70.48;94743.25;5033906;28;20049;-79
2021/07/13 09:41:13;;;;;;;10.70;8.45;;;;;;;21.16;70.04;94731.06;5048002;28;20041;-80
2021/07/13 09:44:08;;;;;;;10.07;8.98;;;;;;;21.20;70.01;94727.31;5051042;28;20465;-79
2021/07/13 09:46:34;;;;;;;;;;;;;;;21.38;70.40;94724.19;5051722;28;20041;-78
2021/07/13 09:49:20;;;;;;;12.75;9.07;;;;;;;21.67;68.72;94722.75;5041298;28;19944;-79
2021/07/13 09:51:59;;;;;;;10.98;8.15;;;;;;;21.79;68.02;94716.41;5024767;28;20044;-79
2021/07/13 09:54:44;;;;;;;12.02;9.10;;;;;;;21.81;68.53;94724.88;5041768;28;20091;-79
2021/07/13 09:57:22;;;;;;;13.75;9.20;;;;;;;21.83;68.77;94722.59;5055276;28;20037;-79
2021/07/13 09:59:50;;;;;;;11.65;9.45;;;;;;;21.44;70.01;94730.78;5053591;28;20041;-79
2021/07/13 10:02:20;;;;;;;10.45;8.85;;;;;;;21.45;69.63;94732.34;5047589;28;20036;-79
2021/07/13 10:04:47;;;;;;;9.40;4.80;;;;;;;20.94;72.00;94742.16;5054455;28;20075;-78
2021/07/13 10:07:15;;;;;;;5.32;2.90;;;;;;;20.31;73.11;94758.47;5055165;28;20115;-79
2021/07/13 10:09:44;;;;;;;4.35;2.80;;;;;;;19.98;74.75;94757.00;5047276;28;20041;-79
2021/07/13 10:12:14;;;;;;;2.53;1.90;;;;;;;19.25;75.24;94780.41;5044299;28;20054;-79
2021/07/13 10:14:48;;;;;;;3.35;1.83;;;;;;;18.92;75.94;94797.47;5054838;28;20124;-78
2021/07/13 10:17:16;;;;;;;6.00;1.90;;;;;;;18.86;76.12;94791.56;5054355;28;20033;-79
2021/07/13 10:19:48;;;;;;;2.30;1.80;;;;;;;18.70;77.14;94799.50;5042474;28;20042;-79
2021/07/13 10:22:14;;;;;;;3.53;1.80;;;;;;;18.68;77.71;94801.75;5038028;28;20108;-79
2021/07/13 10:24:42;;;;;;;3.28;1.52;;;;;;;18.70;77.45;94815.50;5054146;28;20443;-79
2021/07/13 10:27:29;;;;;;;2.35;1.50;;;;;;;18.64;77.85;94812.28;5053890;28;20051;-79
2021/07/13 10:29:56;;;;;;;1.60;1.40;;;;;;;18.31;77.13;94820.47;5046878;28;20072;-79
2021/07/13 10:32:24;;;;;;;1.65;1.15;;;;;;;18.11;76.02;94820.28;5034912;28;20495;-79
2021/07/13 10:34:59;;;;;;;1.58;1.30;;;;;;;18.22;76.39;94814.50;5034269;28;20060;-79
2021/07/13 10:37:40;;;;;;;2.28;1.20;;;;;;;18.26;76.47;94818.03;5032872;28;20041;-80
2021/07/13 10:40:15;;;;;;;1.77;1.40;;;;;;;18.45;74.69;94830.78;5047597;28;20064;-82
2021/07/13 10:42:40;;;;;;;2.05;1.30;;;;;;;18.15;74.51;94829.16;5046498;28;20079;-80
2021/07/13 10:45:21;;;;;;;1.90;1.08;;;;;;;17.99;74.82;94830.94;5050968;28;20033;-80
2021/07/13 10:48:10;;;;;;;3.28;1.00;;;;;;;17.79;75.27;94838.66;5054271;28;20045;-78
2021/07/13 10:50:39;;;;;;;1.27;1.05;;;;;;;17.81;73.67;94833.78;5047335;28;20037;-77
2021/07/13 10:53:07;;;;;;;4.10;1.00;;;;;;;17.78;73.38;94837.09;5039959;28;20037;-77
2021/07/13 10:55:33;;;;;;;2.97;1.20;;;;;;;17.75;74.62;94848.41;5053841;28;20041;-77
2021/07/13 10:58:11;;;;;;;1.00;0.77;;;;;;;17.69;74.63;94860.38;5054297;28;20051;-77
2021/07/13 11:00:54;;;;;;;3.83;1.13;;;;;;;17.60;74.35;94859.72;5049406;28;20037;-77
2021/07/13 11:03:31;;;;;;;1.70;1.35;;;;;;;17.39;73.78;94873.84;5049946;28;20045;-77
2021/07/13 11:05:57;;;;;;;1.35;1.20;;;;;;;17.25;73.40;94876.00;5053956;28;20462;-77
2021/07/13 11:08:41;;;;;;;1.52;0.85;;;;;;;17.21;72.57;94888.38;5051841;28;20037;-77
2021/07/13 11:11:18;;;;;;;1.77;0.93;;;;;;;17.04;72.68;94884.78;5045190;28;20048;-78
2021/07/13 11:13:58;;;;;;;3.35;0.93;;;;;;;17.23;73.56;94888.84;5038386;28;20057;-78
2021/07/13 11:16:30;;;;;;;0.85;0.82;;;;;;;17.17;72.33;94890.13;5063894;28;20037;-77
2021/07/13 11:18:57;;;;;;;2.33;0.80;;;;;;;17.16;72.46;94891.25;5045497;28;20079;-79
2021/07/13 11:21:30;;;;;;;0.50;0.50;;;;;;;17.20;71.19;94894.84;5036882;28;20120;-78
2021/07/13 11:24:26;;;;;;;1.20;1.10;;;;;;;17.06;72.67;94903.84;5056712;28;20037;-80
2021/07/13 11:26:55;;;;;;;4.40;1.20;;;;;;;16.95;72.27;94902.66;5057006;28;20041;-79
2021/07/13 11:29:24;;;;;;;1.42;0.90;;;;;;;16.79;72.03;94924.50;5051820;28;20498;-79
2021/07/13 11:31:52;;;;;;;0.88;0.88;;;;;;;16.78;73.08;94920.28;5052562;28;20060;-78
2021/07/13 11:34:21;;;;;;;3.28;1.10;;;;;;;16.59;71.87;94912.75;5038030;28;20097;-79
2021/07/13 11:36:49;;;;;;;0.75;0.70;;;;;;;16.50;72.77;94927.94;5054340;28;20040;-86
2021/07/13 11:39:32;;;;;;;1.98;0.88;;;;;;;16.47;72.85;94925.94;5036645;28;20098;-79